createdAt,value
2023-03-30T00:01:17.218Z,4.54
2023-03-30T00:03:47.516Z,4.52
2023-03-30T00:06:23.452Z,4.53
2023-03-30T00:08:57.601Z,4.54
2023-03-30T00:11:26.598Z,4.54
2023-03-30T00:13:55.058Z,4.54
2023-03-30T00:16:23.171Z,4.52
2023-03-30T00:18:51.518Z,4.55
2023-03-30T00:21:21.022Z,4.54
2023-03-30T00:23:49.551Z,4.55
2023-03-30T00:26:17.583Z,4.53
2023-03-30T00:28:46.426Z,4.55
2023-03-30T00:31:14.345Z,4.56
2023-03-30T00:33:47.132Z,4.55
2023-03-30T00:36:16.613Z,4.53
2023-03-30T00:38:45.897Z,4.52
2023-03-30T00:41:13.650Z,4.51
2023-03-30T00:44:04.210Z,4.49
2023-03-30T00:46:33.094Z,4.47
2023-03-30T00:49:08.690Z,4.46
2023-03-30T00:51:40.571Z,4.44
2023-03-30T00:54:19.298Z,4.45
2023-03-30T00:56:47.276Z,4.45
2023-03-30T00:59:15.748Z,4.45
2023-03-30T01:01:50.234Z,4.46
2023-03-30T01:04:19.096Z,4.47
2023-03-30T01:06:48.953Z,4.47
2023-03-30T01:09:18.353Z,4.44
2023-03-30T01:11:46.180Z,4.43
2023-03-30T01:14:16.643Z,4.44
2023-03-30T01:16:50.537Z,4.41
2023-03-30T01:20:09.961Z,4.43
2023-03-30T01:22:50.446Z,4.41
2023-03-30T01:25:39.683Z,4.43
2023-03-30T01:28:24.541Z,4.43
2023-03-30T01:31:49.559Z,4.44
2023-03-30T01:34:36.488Z,4.46
2023-03-30T01:38:01.516Z,4.45
2023-03-30T01:41:02.381Z,4.43
2023-03-30T01:44:08.932Z,4.42
2023-03-30T01:46:56.017Z,4.42
2023-03-30T01:49:46.847Z,4.40
2023-03-30T01:52:30.661Z,4.39
2023-03-30T01:55:41.569Z,4.37
2023-03-30T01:58:29.049Z,4.36
2023-03-30T02:01:04.022Z,4.36
2023-03-30T02:03:40.762Z,4.35
2023-03-30T02:06:25.650Z,4.35
2023-03-30T02:08:59.397Z,4.33
2023-03-30T02:11:31.703Z,4.33
2023-03-30T02:14:02.689Z,4.32
2023-03-30T02:16:45.074Z,4.31
2023-03-30T02:19:12.982Z,4.27
2023-03-30T02:21:42.732Z,4.24
2023-03-30T02:24:19.490Z,4.24
2023-03-30T02:26:52.186Z,4.20
2023-03-30T02:29:23.012Z,4.17
2023-03-30T02:31:57.346Z,4.16
2023-03-30T02:34:40.132Z,4.16
2023-03-30T02:37:40.112Z,4.13
2023-03-30T02:40:47.607Z,4.10
2023-03-30T02:43:54.282Z,4.08
2023-03-30T02:46:50.480Z,4.04
2023-03-30T02:50:12.916Z,4.05
2023-03-30T02:52:59.548Z,4.00
2023-03-30T02:55:49.889Z,3.98
2023-03-30T02:58:47.697Z,3.94
2023-03-30T03:01:41.048Z,3.91
2023-03-30T03:04:19.538Z,3.87
2023-03-30T03:07:04.103Z,3.85
2023-03-30T03:09:32.184Z,3.86
2023-03-30T03:11:59.720Z,3.81
2023-03-30T03:14:35.117Z,3.79
2023-03-30T03:17:05.082Z,3.78
2023-03-30T03:19:37.236Z,3.77
2023-03-30T03:22:05.368Z,3.74
2023-03-30T03:24:39.209Z,3.73
2023-03-30T03:27:29.539Z,3.73
2023-03-30T03:30:15.897Z,3.69
2023-03-30T03:32:51.641Z,3.70
2023-03-30T03:35:19.471Z,3.70
2023-03-30T03:37:47.317Z,3.70
2023-03-30T03:40:14.789Z,3.70
2023-03-30T03:42:42.938Z,3.68
2023-03-30T03:45:15.455Z,3.69
2023-03-30T03:47:56.122Z,3.71
2023-03-30T03:50:50.544Z,3.69
2023-03-30T03:53:19.239Z,3.69
2023-03-30T03:55:46.998Z,3.69
2023-03-30T03:58:16.700Z,3.70
2023-03-30T04:00:44.294Z,3.70
2023-03-30T04:03:12.552Z,3.68
2023-03-30T04:05:41.146Z,3.69
2023-03-30T04:08:11.028Z,3.68
2023-03-30T04:10:41.856Z,3.68
2023-03-30T04:13:29.872Z,3.67
2023-03-30T04:16:26.660Z,3.64
2023-03-30T04:19:16.353Z,3.64
2023-03-30T04:22:07.508Z,3.62
2023-03-30T04:24:54.115Z,3.60
2023-03-30T04:27:42.945Z,3.56
2023-03-30T04:30:30.652Z,3.56
2023-03-30T04:33:17.009Z,3.59
2023-03-30T04:36:02.792Z,3.58
2023-03-30T04:39:00.734Z,3.57
2023-03-30T04:41:51.250Z,3.58
2023-03-30T04:44:37.196Z,3.57
2023-03-30T04:47:20.498Z,3.58
2023-03-30T04:50:10.766Z,3.61
2023-03-30T04:52:57.089Z,3.62
2023-03-30T04:55:24.285Z,3.65
2023-03-30T04:58:30.770Z,3.66
2023-03-30T05:01:24.332Z,3.71
2023-03-30T05:04:11.035Z,3.77
2023-03-30T05:06:42.019Z,3.83
2023-03-30T05:09:38.862Z,3.91
2023-03-30T05:12:41.512Z,3.96
2023-03-30T05:15:15.060Z,3.96
2023-03-30T05:18:01.863Z,4.00
2023-03-30T05:20:48.920Z,4.03
2023-03-30T05:23:34.775Z,4.11
2023-03-30T05:26:19.433Z,4.14
2023-03-30T05:29:05.399Z,4.15
2023-03-30T05:31:56.090Z,4.19
2023-03-30T05:34:44.893Z,4.23
2023-03-30T05:37:22.048Z,4.29
2023-03-30T05:40:16.294Z,4.32
2023-03-30T05:43:02.953Z,4.36
2023-03-30T05:46:01.137Z,4.44
2023-03-30T05:48:40.652Z,4.49
2023-03-30T05:51:25.869Z,4.53
2023-03-30T05:54:06.617Z,4.60
2023-03-30T05:56:52.840Z,4.65
2023-03-30T05:59:33.379Z,4.71
2023-03-30T06:02:01.055Z,4.78
2023-03-30T06:04:29.800Z,4.82
2023-03-30T06:06:57.205Z,4.89
2023-03-30T06:09:26.335Z,4.97
2023-03-30T06:11:55.749Z,5.02
2023-03-30T06:14:25.861Z,5.11
2023-03-30T06:17:22.144Z,5.20
2023-03-30T06:19:50.057Z,5.31
2023-03-30T06:22:17.451Z,5.38
2023-03-30T06:24:53.466Z,5.48
2023-03-30T06:27:21.637Z,5.56
2023-03-30T06:29:49.405Z,5.67
2023-03-30T06:32:17.120Z,5.77
2023-03-30T06:35:23.473Z,5.92
2023-03-30T06:37:52.176Z,6.07
2023-03-30T06:40:21.115Z,6.19
2023-03-30T06:42:50.911Z,6.31
2023-03-30T06:45:36.968Z,6.43
2023-03-30T06:48:06.732Z,6.52
2023-03-30T06:50:38.739Z,6.63
2023-03-30T06:53:24.113Z,6.78
2023-03-30T06:55:58.603Z,6.87
2023-03-30T06:58:30.320Z,6.93
2023-03-30T07:00:58.527Z,7.02
2023-03-30T07:03:43.884Z,7.19
2023-03-30T07:06:22.955Z,7.29
2023-03-30T07:08:50.834Z,7.38
2023-03-30T07:11:23.441Z,7.49
2023-03-30T07:13:52.269Z,7.60
2023-03-30T07:16:19.826Z,7.71
2023-03-30T07:18:48.108Z,7.81
2023-03-30T07:21:16.172Z,7.94
2023-03-30T07:23:43.596Z,8.06
2023-03-30T07:26:18.630Z,8.21
2023-03-30T07:29:01.423Z,8.33
2023-03-30T07:31:29.828Z,8.46
2023-03-30T07:33:57.889Z,8.54
2023-03-30T07:36:33.119Z,8.65
2023-03-30T07:39:02.626Z,8.76
2023-03-30T07:41:35.467Z,8.89
2023-03-30T07:44:03.191Z,9.01
2023-03-30T07:46:31.258Z,9.09
2023-03-30T07:48:58.957Z,9.20
2023-03-30T07:51:28.390Z,9.32
2023-03-30T07:54:18.685Z,9.48
2023-03-30T07:57:00.476Z,9.67
2023-03-30T07:59:27.933Z,9.94
2023-03-30T08:02:01.553Z,10.15
2023-03-30T08:04:44.815Z,10.41
2023-03-30T08:07:14.746Z,10.61
2023-03-30T08:09:42.322Z,10.78
2023-03-30T08:12:10.068Z,10.93
2023-03-30T08:14:37.604Z,11.06
2023-03-30T08:17:05.281Z,11.22
2023-03-30T08:19:32.878Z,11.47
2023-03-30T08:22:02.280Z,11.66
2023-03-30T08:24:29.613Z,11.70
2023-03-30T08:26:57.570Z,11.89
2023-03-30T08:29:25.292Z,12.09
2023-03-30T08:31:53.143Z,12.13
2023-03-30T08:34:20.405Z,12.21
2023-03-30T08:36:48.196Z,12.20
2023-03-30T08:39:15.886Z,12.30
2023-03-30T08:42:06.399Z,12.40
2023-03-30T08:44:37.774Z,12.54
2023-03-30T08:47:34.993Z,12.70
2023-03-30T08:50:14.785Z,12.86
2023-03-30T08:52:43.126Z,13.03
2023-03-30T08:55:49.679Z,13.22
2023-03-30T08:58:44.501Z,13.48
2023-03-30T09:01:43.200Z,13.74
2023-03-30T09:04:49.497Z,13.85
2023-03-30T09:07:28.905Z,14.01
2023-03-30T09:09:58.161Z,14.13
2023-03-30T09:12:54.806Z,14.17
2023-03-30T09:16:20.924Z,14.21
2023-03-30T09:18:57.445Z,14.19
2023-03-30T09:21:31.455Z,14.20
2023-03-30T09:24:12.107Z,14.20
2023-03-30T09:26:55.040Z,14.21
2023-03-30T09:29:31.836Z,14.16
2023-03-30T09:32:23.738Z,14.20
2023-03-30T09:35:14.630Z,14.27
2023-03-30T09:37:42.520Z,14.30
2023-03-30T09:40:31.740Z,14.39
2023-03-30T09:43:31.857Z,14.42
2023-03-30T09:46:02.724Z,14.55
2023-03-30T09:48:41.070Z,14.56
2023-03-30T09:51:31.169Z,14.56
2023-03-30T09:54:06.498Z,14.68
2023-03-30T09:56:47.191Z,14.70
2023-03-30T09:59:37.096Z,14.77
2023-03-30T10:02:13.680Z,14.82
2023-03-30T10:04:54.119Z,14.93
2023-03-30T10:07:34.105Z,15.15
2023-03-30T10:10:21.749Z,15.41
2023-03-30T10:12:50.983Z,15.73
2023-03-30T10:15:24.465Z,15.95
2023-03-30T10:17:56.247Z,16.13
2023-03-30T10:20:36.869Z,16.28
2023-03-30T10:23:18.938Z,16.56
2023-03-30T10:25:52.227Z,16.60
2023-03-30T10:28:27.156Z,16.80
2023-03-30T10:31:15.015Z,17.05
2023-03-30T10:33:45.031Z,17.26
2023-03-30T10:36:17.440Z,17.51
2023-03-30T10:38:46.478Z,17.51
2023-03-30T10:41:24.064Z,17.47
2023-03-30T10:43:52.573Z,17.56
2023-03-30T10:46:24.838Z,17.84
2023-03-30T10:49:24.598Z,18.02
2023-03-30T10:52:17.211Z,18.20
2023-03-30T10:54:57.879Z,18.36
2023-03-30T10:57:45.288Z,18.55
2023-03-30T11:00:56.098Z,18.70
2023-03-30T11:03:29.553Z,18.81
2023-03-30T11:06:38.406Z,18.88
2023-03-30T11:09:16.700Z,18.98
2023-03-30T11:12:01.663Z,19.09
2023-03-30T11:14:52.054Z,19.56
2023-03-30T11:17:22.136Z,19.95
2023-03-30T11:19:56.939Z,20.31
2023-03-30T11:23:11.266Z,20.46
2023-03-30T11:25:57.946Z,20.42
2023-03-30T11:28:43.175Z,20.49
2023-03-30T11:31:44.470Z,20.73
2023-03-30T11:34:24.932Z,20.66
2023-03-30T11:37:01.782Z,20.43
2023-03-30T11:39:34.498Z,20.31
2023-03-30T11:42:24.260Z,20.16
2023-03-30T11:44:52.326Z,20.01
2023-03-30T11:47:46.448Z,19.89
2023-03-30T11:50:32.253Z,19.78
2023-03-30T11:53:11.581Z,19.70
2023-03-30T11:55:47.409Z,19.70
2023-03-30T11:58:26.965Z,19.67
2023-03-30T12:01:24.146Z,19.65
2023-03-30T12:04:16.661Z,19.71
2023-03-30T12:07:00.289Z,19.76
2023-03-30T12:09:58.118Z,19.78
2023-03-30T12:12:39.342Z,20.06
2023-03-30T12:15:41.683Z,20.92
2023-03-30T12:18:37.453Z,20.86
2023-03-30T12:21:44.769Z,20.69
2023-03-30T12:24:51.622Z,20.50
2023-03-30T12:27:19.260Z,20.45
2023-03-30T12:32:29.252Z,20.14
2023-03-30T12:34:58.946Z,19.93
2023-03-30T12:37:36.490Z,19.75
2023-03-30T12:40:22.485Z,19.50
2023-03-30T12:43:27.078Z,19.34
2023-03-30T12:46:26.032Z,19.23
2023-03-30T12:49:23.674Z,19.15
2023-03-30T12:52:21.844Z,18.97
2023-03-30T12:55:04.286Z,18.73
2023-03-30T12:58:17.577Z,18.75
2023-03-30T13:01:12.530Z,18.59
2023-03-30T13:03:54.213Z,18.48
2023-03-30T13:06:35.325Z,18.45
2023-03-30T13:09:15.268Z,18.22
2023-03-30T13:12:07.280Z,18.07
2023-03-30T13:14:35.226Z,18.06
2023-03-30T13:17:20.453Z,17.99
2023-03-30T13:20:29.232Z,18.01
2023-03-30T13:23:22.681Z,17.93
2023-03-30T13:26:35.143Z,17.88
2023-03-30T13:29:11.847Z,17.84
2023-03-30T13:32:15.896Z,17.79
2023-03-30T13:35:03.062Z,17.75
2023-03-30T13:38:07.678Z,17.73
2023-03-30T13:41:03.978Z,17.74
2023-03-30T13:43:52.692Z,17.75
2023-03-30T13:46:26.401Z,17.65
2023-03-30T13:49:36.926Z,17.55
2023-03-30T13:52:18.493Z,17.50
2023-03-30T13:54:47.432Z,17.45
2023-03-30T13:57:28.450Z,17.48
2023-03-30T14:00:21.398Z,17.47
2023-03-30T14:02:49.721Z,17.36
2023-03-30T14:05:26.307Z,17.34
2023-03-30T14:07:58.535Z,17.32
2023-03-30T14:10:27.752Z,17.27
2023-03-30T14:12:58.017Z,17.22
2023-03-30T14:15:35.861Z,17.15
2023-03-30T14:18:05.568Z,17.10
2023-03-30T14:20:53.070Z,17.08
2023-03-30T14:23:43.876Z,17.04
2023-03-30T14:26:32.186Z,17.00
2023-03-30T14:29:13.286Z,16.99
2023-03-30T14:31:47.249Z,16.99
2023-03-30T14:34:28.924Z,16.94
2023-03-30T14:37:08.386Z,16.84
2023-03-30T14:39:51.234Z,16.80
2023-03-30T14:42:24.671Z,16.77
2023-03-30T14:44:57.196Z,16.74
2023-03-30T14:47:27.880Z,16.70
2023-03-30T14:50:00.009Z,16.63
2023-03-30T14:52:38.674Z,16.51
2023-03-30T14:55:13.783Z,16.47
2023-03-30T14:57:46.375Z,16.46
2023-03-30T15:00:25.119Z,16.41
2023-03-30T15:02:58.963Z,16.37
2023-03-30T15:05:36.516Z,16.36
2023-03-30T15:08:05.062Z,16.33
2023-03-30T15:10:52.701Z,16.26
2023-03-30T15:13:43.909Z,16.27
2023-03-30T15:16:20.165Z,16.24
2023-03-30T15:18:48.254Z,16.23
2023-03-30T15:21:16.760Z,16.20
2023-03-30T15:23:47.970Z,16.14
2023-03-30T15:26:17.306Z,16.08
2023-03-30T15:29:04.569Z,15.99
2023-03-30T15:31:32.257Z,15.90
2023-03-30T15:34:02.434Z,15.85
2023-03-30T15:36:41.076Z,15.65
2023-03-30T15:39:34.355Z,15.55
2023-03-30T15:42:05.985Z,15.54
2023-03-30T15:44:41.281Z,15.49
2023-03-30T15:47:19.896Z,15.47
2023-03-30T15:49:51.688Z,15.45
2023-03-30T15:52:33.305Z,15.38
2023-03-30T15:55:26.226Z,15.36
2023-03-30T15:57:54.211Z,15.35
2023-03-30T16:00:27.834Z,15.39
2023-03-30T16:03:01.652Z,15.40
2023-03-30T16:05:33.951Z,15.36
2023-03-30T16:08:01.816Z,15.30
2023-03-30T16:10:33.124Z,15.17
2023-03-30T16:13:02.358Z,15.11
2023-03-30T16:15:33.160Z,15.07
2023-03-30T16:18:01.456Z,15.04
2023-03-30T16:20:33.571Z,15.02
2023-03-30T16:23:01.651Z,14.98
2023-03-30T16:28:00.052Z,14.86
2023-03-30T16:30:35.952Z,14.78
2023-03-30T16:33:05.210Z,14.75
2023-03-30T16:35:32.551Z,14.73
2023-03-30T16:38:00.543Z,14.72
2023-03-30T16:40:36.099Z,14.63
2023-03-30T16:43:04.393Z,14.54
2023-03-30T16:45:33.496Z,14.51
2023-03-30T16:48:01.924Z,14.44
2023-03-30T16:50:44.468Z,14.37
2023-03-30T16:53:13.501Z,14.30
2023-03-30T16:55:41.814Z,14.25
2023-03-30T16:58:15.052Z,14.17
2023-03-30T17:00:52.560Z,14.10
2023-03-30T17:03:20.914Z,14.02
2023-03-30T17:05:48.999Z,14.01
2023-03-30T17:08:28.769Z,13.97
2023-03-30T17:11:01.090Z,13.94
2023-03-30T17:13:29.820Z,13.90
2023-03-30T17:15:59.744Z,13.87
2023-03-30T17:18:28.303Z,13.83
2023-03-30T17:20:58.132Z,13.76
2023-03-30T17:23:29.881Z,13.70
2023-03-30T17:26:00.182Z,13.65
2023-03-30T17:28:34.621Z,13.61
2023-03-30T17:31:04.953Z,13.59
2023-03-30T17:33:35.097Z,13.56
2023-03-30T17:36:20.509Z,13.52
2023-03-30T17:38:50.224Z,13.51
2023-03-30T17:41:19.664Z,13.48
2023-03-30T17:43:48.371Z,13.46
2023-03-30T17:46:19.158Z,13.45
2023-03-30T17:48:47.679Z,13.42
2023-03-30T17:51:14.916Z,13.38
2023-03-30T17:53:42.868Z,13.37
2023-03-30T17:56:13.482Z,13.35
2023-03-30T17:58:41.485Z,13.33
2023-03-30T18:01:12.520Z,13.30
2023-03-30T18:03:41.244Z,13.27
2023-03-30T18:06:11.754Z,13.24
2023-03-30T18:08:39.877Z,13.21
2023-03-30T18:11:07.290Z,13.18
2023-03-30T18:13:35.674Z,13.16
2023-03-30T18:16:04.803Z,13.17
2023-03-30T18:18:32.632Z,13.12
2023-03-30T18:21:04.540Z,13.12
2023-03-30T18:23:34.866Z,13.09
2023-03-30T18:26:10.135Z,13.06
2023-03-30T18:28:43.386Z,13.03
2023-03-30T18:31:11.298Z,13.03
2023-03-30T18:33:39.675Z,13.01
2023-03-30T18:36:12.971Z,12.99
2023-03-30T18:38:42.035Z,12.98
2023-03-30T18:41:12.727Z,12.95
2023-03-30T18:43:40.842Z,12.93
2023-03-30T18:46:12.756Z,12.90
2023-03-30T18:48:41.200Z,12.88
2023-03-30T18:51:11.836Z,12.86
2023-03-30T18:53:40.363Z,12.84
2023-03-30T18:56:12.148Z,12.82
2023-03-30T18:58:42.143Z,12.80
2023-03-30T19:01:12.956Z,12.78
2023-03-30T19:03:42.242Z,12.77
2023-03-30T19:06:22.142Z,12.75
2023-03-30T19:08:51.021Z,12.72
2023-03-30T19:11:24.579Z,12.70
2023-03-30T19:13:53.231Z,12.68
2023-03-30T19:16:22.309Z,12.67
2023-03-30T19:18:50.208Z,12.65
2023-03-30T19:21:18.472Z,12.65
2023-03-30T19:23:46.074Z,12.66
2023-03-30T19:26:13.553Z,12.63
2023-03-30T19:28:41.295Z,12.63
2023-03-30T19:31:16.406Z,12.58
2023-03-30T19:33:44.539Z,12.58
2023-03-30T19:36:12.161Z,12.56
2023-03-30T19:38:54.647Z,12.57
2023-03-30T19:41:22.106Z,12.55
2023-03-30T19:43:50.797Z,12.54
2023-03-30T19:46:18.771Z,12.53
2023-03-30T19:48:46.267Z,12.51
2023-03-30T19:51:13.437Z,12.49
2023-03-30T19:53:42.070Z,12.48
2023-03-30T19:56:12.712Z,12.48
2023-03-30T19:58:40.227Z,12.44
2023-03-30T20:01:08.223Z,12.42
2023-03-30T20:03:36.642Z,12.43
2023-03-30T20:06:07.616Z,12.42
2023-03-30T20:08:35.143Z,12.41
2023-03-30T20:11:07.683Z,12.37
2023-03-30T20:13:36.477Z,12.35
2023-03-30T20:16:04.089Z,12.35
2023-03-30T20:18:31.497Z,12.35
2023-03-30T20:21:03.031Z,12.34
2023-03-30T20:23:30.622Z,12.34
2023-03-30T20:25:58.562Z,12.32
2023-03-30T20:28:26.255Z,12.30
2023-03-30T20:30:56.169Z,12.31
2023-03-30T20:33:23.757Z,12.30
2023-03-30T20:35:52.063Z,12.30
2023-03-30T20:38:20.100Z,12.30
2023-03-30T20:41:04.239Z,12.27
2023-03-30T20:43:38.478Z,12.27
2023-03-30T20:46:16.631Z,12.26
2023-03-30T20:48:45.035Z,12.23
2023-03-30T20:51:15.441Z,12.23
2023-03-30T20:53:42.813Z,12.21
2023-03-30T20:56:10.939Z,12.19
2023-03-30T20:58:40.648Z,12.17
2023-03-30T21:01:25.306Z,12.13
2023-03-30T21:03:59.066Z,12.10
2023-03-30T21:06:30.553Z,12.06
2023-03-30T21:09:01.682Z,12.04
2023-03-30T21:11:33.686Z,12.02
2023-03-30T21:14:02.179Z,12.02
2023-03-30T21:16:29.413Z,12.00
2023-03-30T21:18:56.855Z,11.99
2023-03-30T21:21:24.200Z,11.96
2023-03-30T21:23:51.632Z,11.97
2023-03-30T21:26:18.739Z,11.95
2023-03-30T21:28:46.182Z,11.94
2023-03-30T21:31:20.113Z,11.94
2023-03-30T21:33:47.575Z,11.93
2023-03-30T21:36:14.781Z,11.89
2023-03-30T21:38:42.440Z,11.85
2023-03-30T21:41:15.447Z,11.82
2023-03-30T21:43:47.292Z,11.82
2023-03-30T21:46:19.873Z,11.82
2023-03-30T21:48:51.794Z,11.80
2023-03-30T21:51:27.791Z,11.79
2023-03-30T21:53:58.172Z,11.78
2023-03-30T21:56:29.083Z,11.76
2023-03-30T21:58:58.378Z,11.72
2023-03-30T22:01:26.221Z,11.71
2023-03-30T22:03:55.745Z,11.68
2023-03-30T22:06:23.366Z,11.65
2023-03-30T22:08:51.191Z,11.63
2023-03-30T22:11:24.836Z,11.61
2023-03-30T22:13:54.991Z,11.60
2023-03-30T22:16:32.236Z,11.57
2023-03-30T22:18:59.787Z,11.56
2023-03-30T22:21:35.446Z,11.56
2023-03-30T22:24:06.648Z,11.54
2023-03-30T22:26:36.245Z,11.54
2023-03-30T22:29:04.708Z,11.51
2023-03-30T22:31:32.346Z,11.49
2023-03-30T22:34:00.039Z,11.48
2023-03-30T22:36:30.834Z,11.47
2023-03-30T22:39:00.560Z,11.47
2023-03-30T22:41:28.011Z,11.46
2023-03-30T22:43:58.254Z,11.43
2023-03-30T22:46:27.785Z,11.41
2023-03-30T22:48:56.141Z,11.39
2023-03-30T22:51:28.408Z,11.38
2023-03-30T22:54:00.126Z,11.37
2023-03-30T22:56:29.578Z,11.35
2023-03-30T22:58:59.932Z,11.35
2023-03-30T23:01:29.225Z,11.32
2023-03-30T23:03:59.355Z,11.31
2023-03-30T23:06:27.476Z,11.29
2023-03-30T23:08:54.819Z,11.28
2023-03-30T23:11:22.028Z,11.26
2023-03-30T23:13:49.933Z,11.23
2023-03-30T23:16:17.425Z,11.19
2023-03-30T23:18:45.082Z,11.16
2023-03-30T23:21:13.945Z,11.17
2023-03-30T23:23:41.629Z,11.13
2023-03-30T23:26:11.300Z,11.12
2023-03-30T23:28:42.144Z,11.11
2023-03-30T23:31:14.972Z,11.11
2023-03-30T23:33:42.951Z,11.10
2023-03-30T23:36:17.458Z,11.08
2023-03-30T23:38:46.422Z,11.06
2023-03-30T23:41:16.677Z,11.05
2023-03-30T23:44:09.936Z,11.04
2023-03-30T23:46:37.853Z,11.01
2023-03-30T23:49:05.420Z,10.95
2023-03-30T23:51:32.586Z,10.90
2023-03-30T23:54:06.189Z,10.88
2023-03-30T23:56:36.961Z,10.84
2023-03-30T23:59:05.614Z,10.82
